Time;durP1;ratioP1;P1;durP2;ratioP2;P2;SDS_P1;SDS_P2;PMS_P1;PMS_P2;Temp;Humidity;BMP_temperature;BMP_pressure;BME280_temperature;BME280_humidity;BME280_pressure;Samples;Min_cycle;Max_cycle;Signal;HPM_P1;HPM_P2
2021/11/14 00:01:08;;;;;;;21.90;10.93;;;9.50;99.90;;;;;;5093088;28;20054;-78
2021/11/14 00:03:35;;;;;;;22.00;10.00;;;9.50;99.90;;;;;;5075078;28;20070;-77
2021/11/14 00:06:02;;;;;;;18.40;9.82;;;9.50;99.90;;;;;;5093420;28;20052;-79
2021/11/14 00:08:28;;;;;;;19.30;9.77;;;9.50;99.90;;;;;;5075452;28;20031;-78
2021/11/14 00:10:58;;;;;;;15.88;9.23;;;9.50;99.90;;;;;;5074730;28;20093;-78
2021/11/14 00:13:25;;;;;;;17.73;9.57;;;9.60;99.90;;;;;;5092870;28;20027;-78
2021/11/14 00:15:51;;;;;;;15.25;9.30;;;9.50;99.90;;;;;;5092377;28;20024;-77
2021/11/14 00:18:17;;;;;;;16.92;9.13;;;9.50;99.90;;;;;;5093011;28;20092;-77
2021/11/14 00:20:45;;;;;;;16.08;9.10;;;9.60;99.90;;;;;;5092748;28;20099;-77
2021/11/14 00:23:11;;;;;;;19.85;10.20;;;9.50;99.90;;;;;;5079033;28;20023;-77
2021/11/14 00:25:37;;;;;;;17.33;8.90;;;9.50;99.90;;;;;;5096402;28;20016;-78
2021/11/14 00:28:05;;;;;;;16.77;9.38;;;9.60;99.90;;;;;;5078601;28;20058;-79
2021/11/14 00:30:31;;;;;;;18.50;9.23;;;9.60;99.90;;;;;;5078838;28;20055;-79
2021/11/14 00:32:56;;;;;;;19.10;10.15;;;9.60;99.90;;;;;;5096288;28;20028;-79
2021/11/14 00:35:23;;;;;;;18.83;9.90;;;9.60;99.90;;;;;;5096596;28;20016;-79
2021/11/14 00:37:50;;;;;;;19.52;10.27;;;9.60;99.90;;;;;;5077742;28;20024;-78
2021/11/14 00:40:21;;;;;;;18.75;9.30;;;9.60;99.90;;;;;;5078811;28;20050;-78
2021/11/14 00:42:47;;;;;;;20.45;9.77;;;9.60;99.90;;;;;;5078615;28;20063;-78
2021/11/14 00:45:13;;;;;;;21.65;10.57;;;9.60;99.90;;;;;;5078671;28;20060;-78
2021/11/14 00:47:40;;;;;;;19.55;9.70;;;9.60;99.90;;;;;;5078145;28;20031;-78
2021/11/14 00:50:10;;;;;;;20.17;9.90;;;9.60;99.90;;;;;;5096199;28;20020;-78
2021/11/14 00:52:38;;;;;;;18.38;9.70;;;9.60;99.90;;;;;;5078538;28;20445;-77
2021/11/14 00:55:06;;;;;;;21.58;10.43;;;9.60;99.90;;;;;;5096486;28;20020;-78
2021/11/14 00:57:32;;;;;;;18.85;9.65;;;9.60;99.90;;;;;;5078125;28;20055;-77
2021/11/14 00:59:57;;;;;;;20.95;10.15;;;9.60;99.90;;;;;;5077554;28;20024;-77
2021/11/14 01:02:23;;;;;;;21.13;10.48;;;9.60;99.90;;;;;;5077940;28;20453;-77
2021/11/14 01:04:48;;;;;;;21.33;10.80;;;9.60;99.90;;;;;;5077410;28;20020;-77
2021/11/14 01:07:14;;;;;;;19.55;9.88;;;9.60;99.90;;;;;;5077853;28;20380;-78
2021/11/14 01:09:40;;;;;;;19.80;10.32;;;9.60;99.90;;;;;;5095568;28;20027;-78
2021/11/14 01:12:07;;;;;;;20.30;10.38;;;9.60;99.90;;;;;;5078279;28;20041;-78
2021/11/14 01:14:33;;;;;;;21.50;10.77;;;9.60;99.90;;;;;;5078520;28;20024;-78
2021/11/14 01:16:58;;;;;;;21.85;10.43;;;9.60;99.90;;;;;;5095712;28;20023;-78
2021/11/14 01:19:24;;;;;;;26.45;10.98;;;9.60;99.90;;;;;;5095578;28;20465;-79
2021/11/14 01:21:50;;;;;;;25.30;10.50;;;9.60;99.90;;;;;;5077801;28;20457;-78
2021/11/14 01:24:17;;;;;;;23.95;10.88;;;9.60;99.90;;;;;;5095656;28;20020;-78
2021/11/14 01:26:42;;;;;;;21.70;10.95;;;9.70;99.90;;;;;;5077442;28;20023;-78
2021/11/14 01:29:08;;;;;;;24.00;11.15;;;9.60;99.90;;;;;;5095682;28;20016;-79
2021/11/14 01:31:34;;;;;;;23.58;10.77;;;9.60;99.90;;;;;;5078206;28;20342;-78
2021/11/14 01:33:59;;;;;;;21.85;10.93;;;9.60;99.90;;;;;;5094841;28;20433;-78
2021/11/14 01:36:25;;;;;;;26.23;11.85;;;9.60;99.90;;;;;;5077849;28;20421;-78
2021/11/14 01:38:51;;;;;;;24.73;10.93;;;9.60;99.90;;;;;;5076762;28;20036;-78
2021/11/14 01:41:17;;;;;;;24.88;11.23;;;9.60;99.90;;;;;;5095484;28;20028;-78
2021/11/14 01:43:50;;;;;;;21.02;10.65;;;9.70;99.90;;;;;;5077253;28;20047;-77
2021/11/14 01:46:17;;;;;;;23.25;11.40;;;9.70;99.90;;;;;;5077699;28;20063;-78
2021/11/14 01:48:43;;;;;;;22.88;10.80;;;9.60;99.90;;;;;;5094688;28;20108;-78
2021/11/14 01:51:09;;;;;;;27.13;11.35;;;9.60;99.90;;;;;;5077243;28;20016;-78
2021/11/14 01:53:37;;;;;;;27.83;12.02;;;9.60;99.90;;;;;;5077008;28;20024;-79
2021/11/14 01:56:08;;;;;;;21.77;10.75;;;9.60;99.90;;;;;;5076331;28;20016;-79
2021/11/14 01:58:35;;;;;;;20.95;10.80;;;9.70;99.90;;;;;;5077054;28;20043;-79
2021/11/14 02:01:13;;;;;;;23.90;11.65;;;9.70;99.90;;;;;;5076892;28;20392;-78
2021/11/14 02:03:43;;;;;;;22.85;10.68;;;9.70;99.90;;;;;;5077055;28;20052;-79
2021/11/14 02:06:10;;;;;;;20.40;11.10;;;9.70;99.90;;;;;;5077600;28;20020;-79
2021/11/14 02:08:37;;;;;;;26.30;11.48;;;9.70;99.90;;;;;;5076957;28;20578;-79
2021/11/14 02:11:04;;;;;;;25.90;10.93;;;9.70;99.90;;;;;;5094615;28;20055;-79
2021/11/14 02:13:30;;;;;;;20.35;10.43;;;9.70;99.90;;;;;;5094731;28;20485;-79
2021/11/14 02:15:56;;;;;;;22.73;11.07;;;9.60;99.90;;;;;;5094617;28;20104;-79
2021/11/14 02:18:23;;;;;;;23.50;10.68;;;9.70;99.90;;;;;;5076593;28;20058;-79
2021/11/14 02:20:50;;;;;;;21.27;10.60;;;9.60;99.90;;;;;;5075960;28;20110;-79
2021/11/14 02:23:18;;;;;;;24.98;12.13;;;9.60;99.90;;;;;;5094410;28;20044;-78
2021/11/14 02:25:46;;;;;;;23.58;11.50;;;9.60;99.90;;;;;;5076184;28;20460;-78
2021/11/14 02:28:11;;;;;;;24.65;11.98;;;9.60;99.90;;;;;;5094426;28;20433;-79
2021/11/14 02:30:37;;;;;;;25.15;10.70;;;9.60;99.90;;;;;;5076624;28;20023;-79
2021/11/14 02:33:04;;;;;;;24.23;10.98;;;9.60;99.90;;;;;;5075783;28;20039;-79
2021/11/14 02:35:29;;;;;;;27.55;11.55;;;9.50;99.90;;;;;;5076406;28;20111;-79
2021/11/14 02:37:55;;;;;;;24.08;11.73;;;9.50;99.90;;;;;;5093840;28;20516;-79
2021/11/14 02:40:21;;;;;;;25.85;11.48;;;9.50;99.90;;;;;;5094370;28;20089;-79
2021/11/14 02:42:49;;;;;;;23.80;11.77;;;9.50;99.90;;;;;;5075951;28;20477;-78
2021/11/14 02:45:20;;;;;;;22.75;11.05;;;9.60;99.90;;;;;;5075929;28;20369;-77
2021/11/14 02:47:46;;;;;;;23.73;10.85;;;9.60;99.90;;;;;;5075776;28;20055;-77
2021/11/14 02:50:12;;;;;;;24.67;12.35;;;9.70;99.90;;;;;;5075943;28;20019;-79
2021/11/14 02:52:39;;;;;;;25.95;11.98;;;9.70;99.90;;;;;;5093722;28;20445;-78
2021/11/14 02:55:07;;;;;;;24.95;11.82;;;9.60;99.90;;;;;;5075467;28;20368;-77
2021/11/14 02:57:33;;;;;;;18.23;10.05;;;9.60;99.90;;;;;;5075353;28;20101;-78
2021/11/14 02:59:59;;;;;;;24.23;11.23;;;9.60;99.90;;;;;;5075928;28;20028;-80
2021/11/14 03:02:25;;;;;;;20.20;10.50;;;9.60;99.90;;;;;;5076144;28;20057;-80
2021/11/14 03:04:51;;;;;;;22.95;11.07;;;9.60;99.90;;;;;;5093888;28;20556;-79
2021/11/14 03:07:17;;;;;;;23.50;10.98;;;9.60;99.90;;;;;;5076137;28;20024;-79
2021/11/14 03:09:42;;;;;;;23.10;10.77;;;9.60;99.90;;;;;;5076616;28;20074;-80
2021/11/14 03:12:09;;;;;;;22.45;11.48;;;9.60;99.90;;;;;;5093479;28;20016;-78
2021/11/14 03:14:35;;;;;;;24.80;11.57;;;9.60;99.90;;;;;;5076348;28;20020;-79
2021/11/14 03:17:01;;;;;;;22.25;10.68;;;9.60;99.90;;;;;;5075423;28;20035;-79
2021/11/14 03:19:27;;;;;;;22.00;10.70;;;9.60;99.90;;;;;;5093557;28;20031;-79
2021/11/14 03:21:52;;;;;;;22.73;10.85;;;9.60;99.90;;;;;;5075444;28;20020;-79
2021/11/14 03:24:18;;;;;;;20.50;9.88;;;9.60;99.90;;;;;;5076031;28;20020;-79
2021/11/14 03:26:45;;;;;;;21.58;10.43;;;9.60;99.90;;;;;;5093699;28;20103;-79
2021/11/14 03:29:10;;;;;;;21.40;10.30;;;9.60;99.90;;;;;;5075580;28;20024;-79
2021/11/14 03:31:40;;;;;;;21.50;10.00;;;9.60;99.90;;;;;;5093682;28;20490;-79
2021/11/14 03:34:07;;;;;;;20.15;9.77;;;9.60;99.90;;;;;;5093276;28;20269;-79
2021/11/14 03:36:32;;;;;;;18.23;8.73;;;9.60;99.90;;;;;;5075867;28;20016;-79
2021/11/14 03:39:00;;;;;;;17.38;9.07;;;9.60;99.90;;;;;;5074842;28;20032;-79
2021/11/14 03:41:32;;;;;;;18.67;8.40;;;9.60;99.90;;;;;;5093638;28;20028;-79
2021/11/14 03:43:59;;;;;;;16.17;8.38;;;9.60;99.90;;;;;;5092893;28;20020;-79
2021/11/14 03:46:27;;;;;;;13.20;8.13;;;9.60;99.90;;;;;;5093514;28;20108;-79
2021/11/14 03:48:54;;;;;;;14.02;7.95;;;9.60;99.90;;;;;;5075090;28;20035;-79
2021/11/14 03:51:21;;;;;;;13.20;7.63;;;9.60;99.90;;;;;;5093487;28;20031;-79
2021/11/14 03:53:48;;;;;;;11.00;6.82;;;9.60;99.90;;;;;;5093377;28;20031;-79
2021/11/14 03:56:14;;;;;;;14.23;7.13;;;9.60;99.90;;;;;;5076624;28;20055;-79
2021/11/14 03:58:40;;;;;;;13.20;7.22;;;9.60;99.90;;;;;;5079465;28;20028;-79
2021/11/14 04:01:14;;;;;;;11.20;6.60;;;9.50;99.90;;;;;;5096575;28;20058;-77
2021/11/14 04:03:40;;;;;;;11.63;6.55;;;9.50;99.90;;;;;;5079356;28;20115;-78
2021/11/14 04:06:06;;;;;;;12.95;7.10;;;9.50;99.90;;;;;;5078698;28;20044;-77
2021/11/14 04:08:34;;;;;;;11.70;7.05;;;9.50;99.90;;;;;;5079017;28;20081;-77
2021/11/14 04:11:01;;;;;;;10.73;6.85;;;9.50;99.90;;;;;;5096224;28;20043;-77
2021/11/14 04:13:31;;;;;;;14.57;7.25;;;9.60;99.90;;;;;;5078823;28;20066;-78
2021/11/14 04:16:05;;;;;;;12.77;7.25;;;9.60;99.90;;;;;;5096140;28;20028;-78
2021/11/14 04:18:31;;;;;;;12.20;7.05;;;9.50;99.90;;;;;;5078775;28;20035;-78
2021/11/14 04:20:57;;;;;;;11.63;6.97;;;9.50;99.90;;;;;;5078363;28;20028;-77
2021/11/14 04:23:23;;;;;;;11.68;7.28;;;9.50;99.90;;;;;;5096556;28;20104;-78
2021/11/14 04:25:52;;;;;;;12.00;7.60;;;9.50;99.90;;;;;;5096476;28;20020;-77
2021/11/14 04:28:19;;;;;;;12.02;7.55;;;9.50;99.90;;;;;;5096924;28;20020;-77
2021/11/14 04:30:48;;;;;;;11.48;6.65;;;9.50;99.90;;;;;;5078856;28;20077;-77
2021/11/14 04:33:16;;;;;;;10.75;6.80;;;9.50;99.90;;;;;;5096011;28;20020;-78
2021/11/14 04:35:43;;;;;;;9.57;6.22;;;9.50;99.90;;;;;;5078779;28;20043;-78
2021/11/14 04:38:10;;;;;;;10.88;7.28;;;9.50;99.90;;;;;;5077676;28;20028;-78
2021/11/14 04:40:37;;;;;;;11.75;7.63;;;9.50;99.90;;;;;;5096316;28;20031;-78
2021/11/14 04:43:04;;;;;;;10.55;7.30;;;9.50;99.90;;;;;;5095778;28;20032;-78
2021/11/14 04:45:30;;;;;;;11.77;7.07;;;9.50;99.90;;;;;;5077819;28;20043;-78
2021/11/14 04:47:56;;;;;;;10.90;7.28;;;9.50;99.90;;;;;;5077872;28;20115;-78
2021/11/14 04:50:23;;;;;;;10.77;6.97;;;9.50;99.90;;;;;;5078305;28;20063;-77
2021/11/14 04:52:53;;;;;;;10.88;7.00;;;9.50;99.90;;;;;;5078354;28;20039;-77
2021/11/14 04:55:18;;;;;;;9.35;6.55;;;9.50;99.90;;;;;;5096140;28;20368;-78
2021/11/14 04:57:51;;;;;;;10.43;7.25;;;9.50;99.90;;;;;;5094874;28;20040;-78
2021/11/14 05:00:37;;;;;;;10.80;6.45;;;9.50;99.90;;;;;;5078075;28;20020;-77
2021/11/14 05:03:04;;;;;;;9.95;6.53;;;9.50;99.90;;;;;;5095174;28;20024;-77
2021/11/14 05:05:30;;;;;;;13.43;7.22;;;9.60;99.90;;;;;;5095635;28;20019;-78
2021/11/14 05:07:56;;;;;;;11.98;7.57;;;9.50;99.90;;;;;;5076708;28;20035;-77
2021/11/14 05:10:21;;;;;;;11.07;6.63;;;9.50;99.90;;;;;;5077347;28;20365;-78
2021/11/14 05:12:47;;;;;;;11.60;7.20;;;9.50;99.90;;;;;;5095840;28;20105;-77
2021/11/14 05:15:13;;;;;;;13.90;7.65;;;9.50;99.90;;;;;;5077126;28;20016;-78
2021/11/14 05:17:39;;;;;;;9.98;6.57;;;9.50;99.90;;;;;;5077914;28;20028;-78
2021/11/14 05:20:06;;;;;;;8.05;5.85;;;9.40;99.90;;;;;;5077023;28;20103;-78
2021/11/14 05:22:31;;;;;;;10.85;6.75;;;9.40;99.90;;;;;;5095016;28;20027;-78
2021/11/14 05:24:57;;;;;;;11.23;7.28;;;9.40;99.90;;;;;;5076845;28;20020;-78
2021/11/14 05:27:23;;;;;;;10.68;6.53;;;9.40;99.90;;;;;;5093915;28;20364;-78
2021/11/14 05:29:49;;;;;;;10.20;6.32;;;9.50;99.90;;;;;;5070262;28;20423;-77
2021/11/14 05:32:14;;;;;;;10.82;6.72;;;9.50;99.90;;;;;;5074099;28;20055;-76
2021/11/14 05:34:40;;;;;;;10.18;6.63;;;9.40;99.90;;;;;;5076340;28;20377;-77
2021/11/14 05:37:07;;;;;;;10.13;6.35;;;9.50;99.90;;;;;;5081508;28;20400;-77
2021/11/14 05:39:32;;;;;;;12.45;6.70;;;9.40;99.90;;;;;;5074760;28;20046;-79
2021/11/14 05:41:58;;;;;;;9.75;6.40;;;9.40;99.90;;;;;;5074320;28;20110;-78
2021/11/14 05:44:24;;;;;;;14.02;7.03;;;9.40;99.90;;;;;;5074549;28;20461;-78
2021/11/14 05:46:49;;;;;;;10.00;6.70;;;9.40;99.90;;;;;;5073694;28;20046;-79
2021/11/14 05:49:15;;;;;;;11.23;6.70;;;9.50;99.90;;;;;;5073453;28;20439;-78
2021/11/14 05:51:42;;;;;;;11.50;7.05;;;9.50;99.90;;;;;;5073027;28;20032;-78
2021/11/14 05:54:08;;;;;;;10.70;6.85;;;9.40;99.90;;;;;;5073455;28;20024;-79
2021/11/14 05:56:34;;;;;;;11.57;6.38;;;9.40;99.90;;;;;;5073545;28;20034;-79
2021/11/14 06:01:49;;;;;;;11.55;6.65;;;9.50;99.90;;;;;;5091694;28;20024;-77
2021/11/14 06:06:46;;;;;;;11.73;7.43;;;9.50;99.90;;;;;;5092017;28;20465;-78
2021/11/14 06:09:12;;;;;;;13.15;7.68;;;9.50;99.90;;;;;;5072672;28;20070;-78
2021/11/14 06:11:38;;;;;;;15.52;8.05;;;9.50;99.90;;;;;;5073026;28;20024;-78
2021/11/14 06:14:04;;;;;;;13.18;8.15;;;9.50;99.90;;;;;;5090749;28;20035;-78
2021/11/14 06:16:30;;;;;;;14.65;8.90;;;9.50;99.90;;;;;;5090904;28;20516;-78
2021/11/14 06:18:56;;;;;;;14.38;8.80;;;9.40;99.90;;;;;;5071701;28;20123;-78
2021/11/14 06:21:23;;;;;;;13.60;8.52;;;9.40;99.90;;;;;;5073090;28;20024;-78
2021/11/14 06:23:52;;;;;;;12.18;8.20;;;9.40;99.90;;;;;;5073347;28;20024;-78
2021/11/14 06:26:19;;;;;;;14.88;9.15;;;9.40;99.90;;;;;;5072545;28;20530;-78
2021/11/14 06:28:45;;;;;;;12.10;7.88;;;9.40;99.90;;;;;;5073046;28;20055;-78
2021/11/14 06:31:11;;;;;;;14.45;8.90;;;9.40;99.90;;;;;;5090015;28;20030;-77
2021/11/14 06:33:37;;;;;;;14.75;8.35;;;9.50;99.90;;;;;;5090467;28;20024;-77
2021/11/14 06:36:03;;;;;;;13.55;8.55;;;9.50;99.90;;;;;;5072019;28;20028;-78
2021/11/14 06:38:28;;;;;;;14.30;8.70;;;9.50;99.90;;;;;;5090909;28;20457;-78
2021/11/14 06:40:54;;;;;;;16.05;8.90;;;9.50;99.90;;;;;;5072677;28;20454;-78
2021/11/14 06:43:20;;;;;;;15.77;9.15;;;9.50;99.90;;;;;;5090843;28;20020;-78
2021/11/14 06:45:46;;;;;;;14.48;9.55;;;9.50;99.90;;;;;;5090319;28;20380;-77
2021/11/14 06:48:11;;;;;;;16.02;9.43;;;9.50;99.90;;;;;;5071684;28;20043;-78
2021/11/14 06:50:37;;;;;;;15.50;10.00;;;9.50;99.90;;;;;;5072117;28;20453;-79
2021/11/14 06:53:03;;;;;;;13.85;9.27;;;9.50;99.90;;;;;;5071406;28;20378;-79
2021/11/14 06:55:28;;;;;;;18.08;9.85;;;9.50;99.90;;;;;;5072867;28;20117;-77
2021/11/14 06:57:54;;;;;;;16.05;10.15;;;9.50;99.90;;;;;;5090186;28;20072;-77
2021/11/14 07:00:23;;;;;;;16.33;10.10;;;9.40;99.90;;;;;;5071874;28;20032;-77
2021/11/14 07:02:48;;;;;;;17.90;10.82;;;9.40;99.90;;;;;;5089710;28;20445;-77
2021/11/14 07:05:14;;;;;;;17.35;9.52;;;9.40;99.90;;;;;;5071805;28;20028;-77
2021/11/14 07:07:40;;;;;;;18.63;11.63;;;9.40;99.90;;;;;;5071634;28;20039;-77
2021/11/14 07:10:08;;;;;;;15.80;10.07;;;9.40;99.90;;;;;;5089785;28;20024;-77
2021/11/14 07:12:35;;;;;;;16.17;9.90;;;9.40;99.90;;;;;;5090171;28;20024;-77
2021/11/14 07:15:02;;;;;;;16.67;9.88;;;9.40;99.90;;;;;;5089759;28;20028;-77
2021/11/14 07:17:28;;;;;;;17.02;10.05;;;9.40;99.90;;;;;;5072028;28;20028;-77
2021/11/14 07:19:54;;;;;;;18.67;10.32;;;9.50;99.90;;;;;;5089295;28;20445;-76
2021/11/14 07:22:20;;;;;;;17.75;10.13;;;9.50;99.90;;;;;;5088880;28;20046;-78
2021/11/14 07:24:46;;;;;;;19.27;10.45;;;9.50;99.90;;;;;;5072302;28;20115;-77
2021/11/14 07:27:12;;;;;;;19.02;10.52;;;9.50;99.90;;;;;;5071401;28;20028;-78
2021/11/14 07:29:38;;;;;;;17.85;10.48;;;9.40;99.90;;;;;;5089166;28;20023;-78
2021/11/14 07:32:04;;;;;;;17.25;10.82;;;9.50;99.90;;;;;;5093635;28;20024;-79
2021/11/14 07:34:29;;;;;;;19.08;10.65;;;9.50;99.90;;;;;;5094244;28;20059;-79
2021/11/14 07:36:55;;;;;;;18.88;10.40;;;9.50;99.90;;;;;;5093800;28;20043;-78
2021/11/14 07:39:21;;;;;;;20.15;11.07;;;9.50;99.90;;;;;;5093482;28;20033;-78
2021/11/14 07:41:46;;;;;;;17.02;10.63;;;9.50;99.90;;;;;;5075432;28;20020;-79
2021/11/14 07:44:12;;;;;;;18.50;10.88;;;9.50;99.90;;;;;;5092964;28;20023;-79
2021/11/14 07:46:38;;;;;;;18.42;11.25;;;9.50;99.90;;;;;;5075423;28;20038;-77
2021/11/14 07:49:04;;;;;;;19.48;11.25;;;9.50;99.90;;;;;;5074884;28;20142;-79
2021/11/14 07:51:30;;;;;;;19.55;11.80;;;9.60;99.90;;;;;;5075630;28;20027;-79
2021/11/14 07:53:56;;;;;;;20.40;11.27;;;9.60;99.90;;;;;;5075449;28;20024;-79
2021/11/14 07:56:21;;;;;;;16.45;10.63;;;9.60;99.90;;;;;;5093303;28;20028;-79
2021/11/14 07:58:47;;;;;;;18.73;10.73;;;9.60;99.90;;;;;;5074987;28;20051;-68
2021/11/14 08:01:13;;;;;;;20.67;11.00;;;9.60;99.90;;;;;;5092844;28;20060;-81
2021/11/14 08:03:39;;;;;;;17.85;10.85;;;9.70;99.90;;;;;;5074748;28;20047;-80
2021/11/14 08:06:06;;;;;;;20.10;10.95;;;9.70;99.90;;;;;;5092806;28;20028;-79
2021/11/14 08:08:32;;;;;;;22.58;10.80;;;9.70;99.90;;;;;;5074930;28;20032;-79
2021/11/14 08:10:58;;;;;;;21.10;10.90;;;9.70;99.90;;;;;;5074728;28;20107;-78
2021/11/14 08:13:23;;;;;;;21.98;11.65;;;9.80;99.90;;;;;;5075454;28;20455;-79
2021/11/14 08:15:49;;;;;;;21.17;11.75;;;9.70;99.90;;;;;;5075656;28;20028;-79
2021/11/14 08:18:17;;;;;;;23.70;11.82;;;9.80;99.90;;;;;;5075037;28;20483;-79
2021/11/14 08:20:43;;;;;;;22.60;12.00;;;9.80;99.90;;;;;;5076186;28;20039;-79
2021/11/14 08:23:09;;;;;;;20.58;11.90;;;9.80;99.90;;;;;;5093157;28;20020;-79
2021/11/14 08:25:35;;;;;;;22.73;11.98;;;9.90;99.90;;;;;;5075716;28;20035;-79
2021/11/14 08:28:02;;;;;;;23.67;12.52;;;10.00;99.90;;;;;;5076156;28;20031;-79
2021/11/14 08:30:28;;;;;;;25.65;13.02;;;10.00;99.90;;;;;;5075603;28;20024;-79
2021/11/14 08:32:54;;;;;;;26.77;12.90;;;10.10;99.90;;;;;;5075101;28;20028;-79
2021/11/14 08:35:21;;;;;;;27.80;12.65;;;10.10;99.90;;;;;;5074790;28;20028;-79
2021/11/14 08:37:50;;;;;;;24.77;12.38;;;10.10;99.90;;;;;;5093387;28;20119;-79
2021/11/14 08:40:16;;;;;;;21.70;11.63;;;10.10;99.90;;;;;;5092880;28;20461;-79
2021/11/14 08:42:42;;;;;;;26.02;11.88;;;10.10;99.90;;;;;;5073939;28;20024;-79
2021/11/14 08:45:09;;;;;;;22.52;11.77;;;10.20;99.90;;;;;;5092686;28;20031;-79
2021/11/14 08:47:35;;;;;;;21.10;12.02;;;10.30;99.90;;;;;;5075236;28;20119;-79
2021/11/14 08:50:02;;;;;;;21.55;11.05;;;10.30;99.90;;;;;;5076697;28;20024;-77
2021/11/14 08:52:28;;;;;;;23.52;11.85;;;10.40;99.90;;;;;;5094601;28;20484;-78
2021/11/14 08:54:54;;;;;;;23.35;12.27;;;10.40;99.90;;;;;;5077164;28;20028;-78
2021/11/14 08:57:20;;;;;;;22.00;11.63;;;10.40;99.90;;;;;;5093597;28;20140;-79
2021/11/14 08:59:47;;;;;;;20.70;11.48;;;10.30;99.90;;;;;;5094090;28;20111;-78
2021/11/14 09:02:14;;;;;;;19.73;11.00;;;10.30;99.90;;;;;;5093377;28;20028;-79
2021/11/14 09:04:40;;;;;;;20.25;10.90;;;10.40;99.90;;;;;;5074523;28;20032;-79
2021/11/14 09:07:06;;;;;;;17.65;10.15;;;10.30;99.90;;;;;;5092315;28;20453;-79
2021/11/14 09:09:33;;;;;;;20.80;11.27;;;10.30;99.90;;;;;;5093041;28;20036;-78
2021/11/14 09:11:58;;;;;;;20.65;10.95;;;10.30;99.90;;;;;;5093158;28;20024;-79
2021/11/14 09:14:24;;;;;;;20.30;10.88;;;10.30;99.90;;;;;;5074722;28;20024;-79
2021/11/14 09:16:51;;;;;;;17.55;10.23;;;10.20;99.90;;;;;;5093544;28;20048;-79
2021/11/14 09:19:18;;;;;;;21.20;10.82;;;10.20;99.90;;;;;;5075158;28;20031;-79
2021/11/14 09:21:44;;;;;;;21.45;10.75;;;10.20;99.90;;;;;;5092488;28;20048;-79
2021/11/14 09:24:10;;;;;;;21.80;11.27;;;10.10;99.90;;;;;;5091805;28;20030;-79
2021/11/14 09:26:37;;;;;;;19.92;10.80;;;10.10;99.90;;;;;;5074171;28;20115;-79
2021/11/14 09:29:04;;;;;;;22.52;11.85;;;10.10;99.90;;;;;;5074290;28;20377;-78
2021/11/14 09:31:30;;;;;;;21.90;11.77;;;10.00;99.90;;;;;;5076374;28;20088;-78
2021/11/14 09:33:57;;;;;;;20.83;11.32;;;10.00;99.90;;;;;;5075019;28;20051;-79
2021/11/14 09:36:24;;;;;;;19.10;11.05;;;10.00;99.90;;;;;;5074279;28;20031;-79
2021/11/14 09:38:51;;;;;;;19.50;11.30;;;10.00;99.90;;;;;;5093560;28;20032;-79
2021/11/14 09:41:19;;;;;;;19.05;11.18;;;10.10;99.90;;;;;;5075213;28;20033;-79
2021/11/14 09:43:45;;;;;;;18.95;11.10;;;10.10;99.90;;;;;;5074406;28;20093;-79
2021/11/14 09:46:11;;;;;;;20.13;10.88;;;10.20;99.90;;;;;;5091221;28;20028;-79
2021/11/14 09:48:37;;;;;;;23.42;11.32;;;10.30;99.90;;;;;;5092615;28;20028;-79
2021/11/14 09:51:02;;;;;;;19.67;11.13;;;10.30;99.90;;;;;;5073336;28;20539;-79
2021/11/14 09:53:32;;;;;;;18.75;10.77;;;10.40;99.90;;;;;;5073916;28;20445;-79
2021/11/14 09:55:59;;;;;;;19.63;10.38;;;10.40;99.90;;;;;;5091986;28;20531;-79
2021/11/14 09:58:25;;;;;;;21.35;10.68;;;10.40;99.90;;;;;;5092233;28;20035;-79
2021/11/14 10:00:52;;;;;;;19.90;10.48;;;10.40;99.90;;;;;;5073715;28;20047;-78
2021/11/14 10:03:19;;;;;;;19.15;9.88;;;10.50;99.90;;;;;;5073031;28;20032;-79
2021/11/14 10:05:45;;;;;;;21.83;10.85;;;10.50;99.90;;;;;;5091632;28;20342;-79
2021/11/14 10:08:11;;;;;;;18.77;10.38;;;10.50;99.90;;;;;;5091432;28;20069;-79
2021/11/14 10:10:40;;;;;;;16.35;10.02;;;10.50;99.90;;;;;;5073680;28;20473;-79
2021/11/14 10:13:17;;;;;;;20.08;10.38;;;10.60;99.90;;;;;;5073219;28;20051;-79
2021/11/14 10:15:44;;;;;;;20.60;10.30;;;10.60;99.90;;;;;;5073463;28;20031;-79
2021/11/14 10:18:12;;;;;;;18.90;10.25;;;10.60;99.90;;;;;;5091112;28;20028;-79
2021/11/14 10:20:38;;;;;;;17.65;9.75;;;10.60;99.90;;;;;;5091959;28;20445;-79
2021/11/14 10:23:14;;;;;;;20.42;10.63;;;10.60;99.90;;;;;;5072828;28;20110;-79
2021/11/14 10:25:41;;;;;;;18.95;10.43;;;10.60;99.90;;;;;;5091492;28;20024;-79
2021/11/14 10:28:07;;;;;;;19.10;10.23;;;10.60;99.90;;;;;;5073069;28;20050;-79
2021/11/14 10:30:39;;;;;;;18.20;10.02;;;10.60;99.90;;;;;;5073425;28;20474;-79
2021/11/14 10:33:09;;;;;;;18.15;10.13;;;10.70;99.90;;;;;;5072819;28;20036;-78
2021/11/14 10:35:36;;;;;;;19.15;10.05;;;10.70;99.90;;;;;;5073156;28;20032;-78
2021/11/14 10:38:11;;;;;;;19.42;9.93;;;10.70;99.90;;;;;;5056744;28;20071;-78
2021/11/14 10:40:41;;;;;;;17.08;9.30;;;10.70;99.90;;;;;;5073857;28;20523;-78
2021/11/14 10:43:07;;;;;;;19.10;9.80;;;10.70;99.90;;;;;;5072883;28;20039;-79
2021/11/14 10:45:38;;;;;;;17.75;9.40;;;10.60;99.90;;;;;;5073819;28;20036;-79
2021/11/14 10:48:07;;;;;;;18.92;10.45;;;10.60;99.90;;;;;;5071322;28;20021;-79
2021/11/14 10:50:35;;;;;;;20.48;10.60;;;10.60;99.90;;;;;;5079397;28;20423;-79
2021/11/14 10:53:17;;;;;;;17.13;9.75;;;10.60;99.90;;;;;;5073617;28;20111;-78
2021/11/14 10:55:52;;;;;;;22.90;10.30;;;10.70;99.90;;;;;;5074924;28;20073;-79
2021/11/14 10:58:18;;;;;;;21.25;10.30;;;10.70;99.90;;;;;;5072953;28;20052;-78
2021/11/14 11:00:48;;;;;;;21.88;10.70;;;10.80;99.90;;;;;;5073585;28;20114;-79
2021/11/14 11:03:14;;;;;;;20.45;10.35;;;10.80;99.90;;;;;;5072512;28;20020;-79
2021/11/14 11:05:40;;;;;;;21.08;10.57;;;10.90;99.90;;;;;;5072370;28;20031;-79
2021/11/14 11:08:07;;;;;;;19.20;10.10;;;10.90;99.90;;;;;;5089243;28;20111;-78
2021/11/14 11:10:43;;;;;;;20.90;10.32;;;10.80;99.90;;;;;;5091085;28;20161;-79
2021/11/14 11:13:30;;;;;;;26.77;10.93;;;10.90;99.90;;;;;;5072081;28;20024;-79
2021/11/14 11:16:00;;;;;;;18.27;10.10;;;11.00;99.90;;;;;;5090391;28;20050;-79
2021/11/14 11:18:25;;;;;;;18.27;9.85;;;11.00;99.90;;;;;;5072276;28;20028;-82
2021/11/14 11:20:54;;;;;;;16.73;9.27;;;11.00;99.90;;;;;;5072846;28;20035;-80
2021/11/14 11:23:22;;;;;;;19.20;9.43;;;11.00;99.90;;;;;;5090010;28;20063;-83
2021/11/14 11:25:51;;;;;;;16.10;8.98;;;11.00;99.90;;;;;;5090148;28;20036;-79
2021/11/14 11:28:18;;;;;;;18.95;9.80;;;11.10;99.90;;;;;;5071707;28;20028;-78
2021/11/14 11:30:59;;;;;;;18.02;9.75;;;11.10;99.90;;;;;;5071909;28;20028;-81
2021/11/14 11:33:27;;;;;;;16.17;9.32;;;11.20;99.90;;;;;;5089503;28;20024;-79
2021/11/14 11:35:54;;;;;;;16.80;9.70;;;11.10;99.90;;;;;;5071693;28;20031;-79
2021/11/14 11:38:21;;;;;;;23.30;11.30;;;11.20;99.90;;;;;;5089472;28;20032;-79
2021/11/14 11:40:51;;;;;;;17.02;10.40;;;11.20;99.90;;;;;;5071922;28;20032;-79
2021/11/14 11:43:17;;;;;;;16.13;9.45;;;11.20;99.90;;;;;;5089582;28;20027;-78
2021/11/14 11:45:45;;;;;;;18.02;9.40;;;11.10;99.90;;;;;;5069345;28;20020;-78
2021/11/14 11:48:21;;;;;;;19.38;10.25;;;11.20;99.90;;;;;;5088946;28;20035;-78
2021/11/14 11:50:48;;;;;;;19.02;9.85;;;11.20;99.90;;;;;;5071074;28;20457;-77
2021/11/14 11:53:26;;;;;;;19.20;9.73;;;11.20;99.90;;;;;;5089186;28;20434;-78
2021/11/14 11:56:00;;;;;;;15.18;8.93;;;11.20;99.90;;;;;;5088170;28;20230;-76
2021/11/14 11:58:40;;;;;;;17.75;9.55;;;11.20;99.90;;;;;;5065050;28;20087;-76
2021/11/14 12:01:06;;;;;;;19.92;9.00;;;11.20;99.90;;;;;;5054990;28;20117;-77
2021/11/14 12:03:35;;;;;;;16.33;9.32;;;11.20;99.90;;;;;;5050434;28;20033;-77
2021/11/14 12:06:02;;;;;;;19.17;9.75;;;11.20;99.90;;;;;;5049407;28;20107;-77
2021/11/14 12:08:47;;;;;;;20.00;9.38;;;11.20;99.90;;;;;;5050793;28;20025;-77
2021/11/14 12:11:34;;;;;;;18.05;9.45;;;11.20;99.90;;;;;;5048968;28;20056;-78
2021/11/14 12:14:14;;;;;;;15.93;9.18;;;11.20;99.90;;;;;;5051315;28;20029;-77
2021/11/14 12:16:40;;;;;;;19.50;10.23;;;11.20;99.90;;;;;;5057395;28;20024;-77
2021/11/14 12:19:05;;;;;;;18.73;9.85;;;11.20;99.90;;;;;;5068774;28;20094;-76
2021/11/14 12:21:31;;;;;;;19.15;9.77;;;11.10;99.90;;;;;;5069332;28;20056;-76
2021/11/14 12:24:02;;;;;;;19.33;9.60;;;11.10;99.90;;;;;;5070296;28;20471;-76
2021/11/14 12:26:31;;;;;;;22.65;10.43;;;11.10;99.90;;;;;;5069025;28;20032;-75
2021/11/14 12:29:00;;;;;;;21.13;9.93;;;11.20;99.90;;;;;;5069068;28;20079;-75
2021/11/14 12:31:29;;;;;;;25.90;11.63;;;11.10;99.90;;;;;;5055208;28;20025;-74
2021/11/14 12:34:07;;;;;;;20.35;10.30;;;11.10;99.90;;;;;;5054467;28;20095;-75
2021/11/14 12:36:39;;;;;;;20.95;10.48;;;11.10;99.90;;;;;;5052005;28;20044;-75
2021/11/14 12:39:18;;;;;;;23.75;11.43;;;11.10;99.90;;;;;;5051591;28;20071;-74
2021/11/14 12:41:54;;;;;;;22.35;10.98;;;11.00;99.90;;;;;;5067471;28;20359;-74
2021/11/14 12:44:39;;;;;;;24.48;11.95;;;11.00;99.90;;;;;;5068082;28;20094;-75